createdAt,value
2019-03-09T00:01:50.655Z,10.57
2019-03-09T00:04:20.060Z,13.63
2019-03-09T00:06:49.520Z,10.93
2019-03-09T00:09:18.983Z,12.20
2019-03-09T00:11:48.467Z,11.90
2019-03-09T00:14:18.090Z,16.33
2019-03-09T00:16:47.549Z,14.73
2019-03-09T00:19:16.977Z,11.57
2019-03-09T00:21:46.460Z,12.63
2019-03-09T00:24:17.525Z,10.17
2019-03-09T00:26:51.823Z,7.40
2019-03-09T00:29:25.839Z,9.63
2019-03-09T00:31:56.953Z,7.83
2019-03-09T00:34:26.448Z,9.00
2019-03-09T00:36:56.115Z,9.57
2019-03-09T00:39:25.503Z,11.50
2019-03-09T00:41:54.954Z,8.80
2019-03-09T00:44:24.387Z,11.83
2019-03-09T00:46:53.858Z,13.60
2019-03-09T00:49:23.622Z,6.37
2019-03-09T00:51:53.160Z,7.07
2019-03-09T00:54:22.599Z,5.37
2019-03-09T00:56:52.152Z,6.70
2019-03-09T00:59:21.515Z,5.53
2019-03-09T01:01:51.055Z,6.73
2019-03-09T01:04:20.411Z,6.57
2019-03-09T01:06:49.930Z,6.33
2019-03-09T01:09:19.351Z,6.83
2019-03-09T01:11:48.875Z,6.40
2019-03-09T01:14:18.237Z,6.50
2019-03-09T01:16:47.827Z,7.60
2019-03-09T01:19:17.178Z,6.93
2019-03-09T01:21:46.579Z,8.47
2019-03-09T01:24:15.943Z,8.73
2019-03-09T01:26:45.469Z,7.07
2019-03-09T01:29:14.897Z,9.80
2019-03-09T01:31:44.482Z,10.53
2019-03-09T01:34:13.907Z,9.90
2019-03-09T01:36:43.310Z,10.23
2019-03-09T01:39:12.811Z,10.07
2019-03-09T01:41:42.348Z,10.10
2019-03-09T01:44:13.521Z,11.93
2019-03-09T01:46:42.991Z,11.97
2019-03-09T01:49:12.419Z,10.97
2019-03-09T01:51:41.919Z,11.63
2019-03-09T01:54:11.349Z,12.23
2019-03-09T01:56:40.747Z,12.87
2019-03-09T01:59:10.206Z,13.47
2019-03-09T02:01:39.976Z,14.37
2019-03-09T02:04:09.458Z,16.23
2019-03-09T02:06:39.006Z,14.03
2019-03-09T02:09:08.474Z,16.87
2019-03-09T02:11:37.938Z,16.43
2019-03-09T02:14:07.492Z,15.97
2019-03-09T02:16:36.893Z,16.50
2019-03-09T02:19:06.282Z,16.60
2019-03-09T02:21:35.768Z,15.87
2019-03-09T02:24:05.504Z,18.00
2019-03-09T02:26:34.918Z,19.57
2019-03-09T02:29:04.487Z,17.07
2019-03-09T02:31:33.880Z,18.00
2019-03-09T02:34:03.345Z,17.27
2019-03-09T02:36:32.779Z,17.13
2019-03-09T02:39:03.906Z,16.33
2019-03-09T02:41:33.368Z,16.57
2019-03-09T02:44:02.748Z,16.73
2019-03-09T02:46:32.190Z,16.03
2019-03-09T02:49:01.673Z,15.77
2019-03-09T02:51:31.252Z,15.47
2019-03-09T02:54:00.689Z,16.03
2019-03-09T02:56:30.151Z,15.87
2019-03-09T02:58:59.594Z,13.17
2019-03-09T03:01:31.005Z,13.17
2019-03-09T03:04:00.378Z,12.33
2019-03-09T03:06:29.763Z,11.17
2019-03-09T03:08:59.119Z,15.07
2019-03-09T03:11:28.895Z,16.37
2019-03-09T03:13:58.332Z,11.60
2019-03-09T03:16:27.716Z,14.40
2019-03-09T03:18:57.079Z,16.37
2019-03-09T03:21:29.401Z,14.67
2019-03-09T03:23:58.999Z,15.70
2019-03-09T03:26:30.171Z,14.33
2019-03-09T03:28:59.593Z,15.83
2019-03-09T03:31:29.031Z,18.93
2019-03-09T03:33:58.696Z,17.27
2019-03-09T03:36:28.103Z,16.17
2019-03-09T03:38:59.116Z,18.73
2019-03-09T03:41:28.595Z,17.13
2019-03-09T03:43:58.447Z,16.60
2019-03-09T03:46:27.921Z,18.50
2019-03-09T03:48:57.618Z,16.97
2019-03-09T03:51:27.112Z,14.13
2019-03-09T03:53:56.526Z,17.77
2019-03-09T03:56:26.046Z,19.27
2019-03-09T03:58:55.555Z,19.73
2019-03-09T04:01:25.459Z,16.93
2019-03-09T04:03:55.010Z,17.23
2019-03-09T04:06:24.847Z,15.27
2019-03-09T04:08:54.711Z,16.30
2019-03-09T04:11:24.332Z,19.07
2019-03-09T04:13:53.947Z,14.80
2019-03-09T04:16:23.478Z,15.67
2019-03-09T04:18:52.948Z,20.97
2019-03-09T04:21:22.375Z,17.37
2019-03-09T04:23:52.094Z,16.30
2019-03-09T04:26:21.769Z,20.73
2019-03-09T04:28:51.311Z,16.47
2019-03-09T04:31:20.810Z,21.93
2019-03-09T04:33:50.479Z,13.20
2019-03-09T04:36:19.915Z,18.23
2019-03-09T04:38:49.469Z,19.10
2019-03-09T04:41:18.900Z,19.40
2019-03-09T04:43:48.286Z,20.50
2019-03-09T04:46:17.671Z,19.17
2019-03-09T04:48:47.081Z,25.60
2019-03-09T04:51:16.511Z,21.30
2019-03-09T04:53:45.940Z,22.57
2019-03-09T04:56:15.472Z,19.50
2019-03-09T04:58:44.866Z,24.47
2019-03-09T05:01:14.309Z,23.37
2019-03-09T05:03:43.777Z,29.43
2019-03-09T05:06:13.579Z,25.10
2019-03-09T05:08:46.042Z,21.53
2019-03-09T05:11:15.929Z,21.10
2019-03-09T05:13:45.392Z,24.33
2019-03-09T05:16:15.216Z,24.23
2019-03-09T05:18:44.660Z,21.67
2019-03-09T05:21:14.068Z,24.23
2019-03-09T05:23:43.527Z,29.10
2019-03-09T05:26:12.986Z,23.80
2019-03-09T05:28:42.398Z,28.93
2019-03-09T05:31:11.793Z,24.00
2019-03-09T05:33:41.255Z,23.40
2019-03-09T05:36:10.725Z,22.00
2019-03-09T05:38:40.175Z,25.57
2019-03-09T05:41:09.639Z,28.10
2019-03-09T05:43:39.114Z,28.77
2019-03-09T05:46:08.643Z,24.37
2019-03-09T05:48:38.581Z,24.43
2019-03-09T05:51:08.024Z,23.93
2019-03-09T05:53:37.381Z,29.13
2019-03-09T05:56:07.885Z,23.03
2019-03-09T05:58:37.416Z,29.80
2019-03-09T06:01:06.892Z,23.20
2019-03-09T06:03:36.253Z,25.40
2019-03-09T06:06:05.903Z,27.20
2019-03-09T06:08:35.305Z,31.63
2019-03-09T06:11:05.099Z,33.10
2019-03-09T06:13:34.467Z,20.63
2019-03-09T06:16:04.005Z,20.10
2019-03-09T06:18:33.443Z,19.43
2019-03-09T06:21:04.496Z,25.30
2019-03-09T06:23:33.968Z,21.17
2019-03-09T06:26:03.689Z,21.83
2019-03-09T06:28:33.172Z,19.07
2019-03-09T06:31:02.609Z,20.20
2019-03-09T06:33:32.066Z,25.30
2019-03-09T06:36:09.886Z,25.80
2019-03-09T06:38:57.084Z,20.00
2019-03-09T06:41:35.447Z,21.80
2019-03-09T06:44:05.422Z,20.53
2019-03-09T06:46:35.093Z,18.43
2019-03-09T06:49:04.647Z,19.33
2019-03-09T06:51:34.067Z,20.80
2019-03-09T06:54:03.708Z,17.97
2019-03-09T06:56:33.092Z,17.93
2019-03-09T06:59:02.491Z,21.00
2019-03-09T07:01:32.012Z,18.13
2019-03-09T07:04:01.476Z,21.93
2019-03-09T07:06:30.844Z,18.23
2019-03-09T07:09:00.232Z,23.33
2019-03-09T07:11:29.598Z,17.93
2019-03-09T07:14:18.956Z,20.67
2019-03-09T07:16:49.969Z,18.47
2019-03-09T07:19:19.823Z,25.53
2019-03-09T07:21:49.199Z,19.47
2019-03-09T07:24:18.691Z,23.77
2019-03-09T07:26:48.116Z,26.23
2019-03-09T07:29:17.513Z,24.00
2019-03-09T07:31:46.990Z,23.43
2019-03-09T07:34:25.062Z,25.60
2019-03-09T07:36:54.494Z,23.27
2019-03-09T07:39:23.850Z,21.47
2019-03-09T07:41:53.255Z,21.20
2019-03-09T07:44:22.766Z,20.13
2019-03-09T07:46:54.940Z,23.33
2019-03-09T07:49:24.423Z,22.50
2019-03-09T07:51:53.786Z,20.70
2019-03-09T07:54:23.153Z,27.50
2019-03-09T07:56:52.554Z,22.13
2019-03-09T07:59:21.902Z,24.50
2019-03-09T08:01:52.587Z,23.97
2019-03-09T08:04:21.989Z,25.73
2019-03-09T08:06:51.435Z,25.00
2019-03-09T08:09:24.516Z,30.77
2019-03-09T08:11:53.496Z,24.87
2019-03-09T08:14:23.028Z,23.50
2019-03-09T08:16:53.352Z,25.63
2019-03-09T08:19:22.813Z,23.07
2019-03-09T08:21:52.243Z,30.00
2019-03-09T08:24:23.118Z,29.07
2019-03-09T08:26:52.551Z,21.73
2019-03-09T08:29:21.971Z,22.00
2019-03-09T08:31:51.400Z,25.67
2019-03-09T08:34:20.822Z,24.63
2019-03-09T08:36:50.249Z,22.27
2019-03-09T08:39:19.699Z,22.77
2019-03-09T08:41:49.148Z,25.73
2019-03-09T08:44:18.665Z,21.70
2019-03-09T08:46:48.093Z,22.53
2019-03-09T08:49:17.564Z,20.23
2019-03-09T08:51:46.937Z,20.77
2019-03-09T08:54:16.396Z,21.50
2019-03-09T08:56:45.888Z,22.33
2019-03-09T08:59:15.381Z,24.07
2019-03-09T09:01:44.843Z,21.97
2019-03-09T09:04:14.278Z,22.43
2019-03-09T09:06:43.656Z,22.93
2019-03-09T09:09:13.229Z,18.23
2019-03-09T09:11:42.816Z,19.53
2019-03-09T09:14:12.284Z,29.63
2019-03-09T09:16:42.142Z,21.47
2019-03-09T09:19:11.687Z,20.07
2019-03-09T09:21:41.115Z,22.37
2019-03-09T09:24:10.580Z,17.07
2019-03-09T09:26:41.542Z,20.33
2019-03-09T09:29:11.079Z,20.93
2019-03-09T09:31:40.514Z,19.63
2019-03-09T09:34:09.920Z,17.20
2019-03-09T09:36:39.357Z,22.13
2019-03-09T09:39:08.925Z,19.33
2019-03-09T09:41:38.959Z,20.30
2019-03-09T09:44:08.705Z,17.03
2019-03-09T09:46:38.066Z,26.47
2019-03-09T09:49:07.685Z,17.47
2019-03-09T09:51:37.059Z,18.20
2019-03-09T09:54:06.595Z,15.70
2019-03-09T09:56:36.031Z,17.67
2019-03-09T09:59:05.515Z,18.40
2019-03-09T10:01:35.025Z,18.17
2019-03-09T10:04:05.023Z,19.17
2019-03-09T10:06:34.709Z,17.27
2019-03-09T10:09:05.539Z,18.17
2019-03-09T10:11:35.894Z,16.53
2019-03-09T10:14:05.427Z,16.53
2019-03-09T10:16:34.800Z,15.77
2019-03-09T10:19:04.359Z,16.40
2019-03-09T10:21:33.724Z,22.73
2019-03-09T10:24:03.262Z,14.50
2019-03-09T10:26:32.622Z,12.00
2019-03-09T10:29:02.129Z,19.63
2019-03-09T10:31:31.743Z,18.17
2019-03-09T10:34:01.096Z,16.33
2019-03-09T10:36:30.504Z,18.00
2019-03-09T10:38:59.946Z,15.27
2019-03-09T10:41:29.332Z,13.90
2019-03-09T10:43:58.830Z,13.70
2019-03-09T10:46:28.314Z,17.57
2019-03-09T10:48:57.688Z,21.43
2019-03-09T10:51:27.091Z,15.77
2019-03-09T10:53:56.442Z,15.13
2019-03-09T10:56:25.843Z,19.40
2019-03-09T10:58:55.344Z,17.73
2019-03-09T11:01:24.846Z,13.50
2019-03-09T11:03:54.235Z,14.33
2019-03-09T11:06:23.671Z,19.00
2019-03-09T11:08:53.208Z,18.47
2019-03-09T11:11:25.370Z,15.80
2019-03-09T11:13:55.101Z,17.03
2019-03-09T11:16:24.539Z,16.70
2019-03-09T11:18:53.929Z,11.60
2019-03-09T11:21:23.286Z,14.37
2019-03-09T11:23:52.805Z,15.43
2019-03-09T11:26:22.321Z,14.60
2019-03-09T11:28:51.729Z,18.77
2019-03-09T11:31:21.208Z,16.50
2019-03-09T11:33:50.683Z,15.53
2019-03-09T11:36:20.119Z,17.00
2019-03-09T11:38:49.562Z,15.93
2019-03-09T11:41:19.571Z,15.17
2019-03-09T11:43:49.147Z,18.47
2019-03-09T11:46:18.642Z,15.73
2019-03-09T11:48:48.179Z,17.33
2019-03-09T11:51:18.155Z,16.70
2019-03-09T11:53:47.686Z,15.63
2019-03-09T11:56:18.643Z,18.13
2019-03-09T11:58:48.114Z,13.80
2019-03-09T12:01:17.514Z,10.70
2019-03-09T12:03:47.420Z,12.47
2019-03-09T12:06:16.898Z,15.93
2019-03-09T12:08:46.295Z,19.17
2019-03-09T12:11:15.698Z,15.23
2019-03-09T12:13:45.188Z,10.57
2019-03-09T12:16:14.715Z,14.50
2019-03-09T12:18:44.237Z,15.60
2019-03-09T12:21:13.627Z,16.07
2019-03-09T12:23:43.036Z,10.53
2019-03-09T12:26:12.492Z,17.60
2019-03-09T12:28:41.885Z,15.47
2019-03-09T12:31:11.375Z,15.57
2019-03-09T12:33:40.840Z,16.43
2019-03-09T12:36:10.304Z,18.33
2019-03-09T12:38:39.761Z,11.67
2019-03-09T12:41:09.577Z,13.10
2019-03-09T12:43:39.195Z,14.17
2019-03-09T12:46:10.014Z,16.07
2019-03-09T12:48:41.089Z,16.10
2019-03-09T12:51:10.630Z,18.97
2019-03-09T12:53:40.032Z,14.33
2019-03-09T12:56:09.455Z,12.30
2019-03-09T12:58:38.856Z,16.13
2019-03-09T13:01:08.249Z,14.63
2019-03-09T13:03:37.670Z,20.03
2019-03-09T13:06:07.132Z,13.17
2019-03-09T13:08:36.703Z,13.73
2019-03-09T13:11:06.167Z,14.30
2019-03-09T13:13:35.643Z,14.23
2019-03-09T13:16:05.163Z,14.83
2019-03-09T13:18:34.565Z,14.43
2019-03-09T13:21:04.114Z,13.73
2019-03-09T13:23:35.187Z,13.57
2019-03-09T13:26:05.304Z,12.63
2019-03-09T13:28:34.787Z,16.27
2019-03-09T13:31:04.733Z,16.70
2019-03-09T13:33:34.195Z,15.57
2019-03-09T13:36:03.663Z,17.73
2019-03-09T13:38:33.135Z,16.97
2019-03-09T13:41:02.827Z,21.60
2019-03-09T13:43:32.290Z,17.70
2019-03-09T13:46:01.738Z,16.43
2019-03-09T13:48:32.809Z,17.80
2019-03-09T13:51:02.702Z,15.13
2019-03-09T13:53:35.271Z,16.00
2019-03-09T13:56:04.683Z,10.23
2019-03-09T13:58:34.242Z,16.40
2019-03-09T14:01:03.775Z,19.60
2019-03-09T14:03:33.254Z,13.27
2019-03-09T14:06:02.643Z,17.20
2019-03-09T14:08:32.043Z,17.23
2019-03-09T14:11:01.433Z,17.53
2019-03-09T14:13:30.902Z,13.93
2019-03-09T14:16:00.433Z,16.57
2019-03-09T14:18:29.908Z,15.60
2019-03-09T14:20:59.442Z,18.87
2019-03-09T14:23:28.843Z,16.53
2019-03-09T14:25:58.390Z,18.97
2019-03-09T14:28:27.795Z,21.07
2019-03-09T14:30:57.259Z,15.93
2019-03-09T14:33:28.760Z,16.00
2019-03-09T14:35:58.061Z,12.33
2019-03-09T14:38:27.522Z,16.37
2019-03-09T14:40:56.924Z,18.77
2019-03-09T14:43:26.318Z,19.50
2019-03-09T14:45:55.786Z,20.67
2019-03-09T14:48:25.255Z,17.37
2019-03-09T14:50:54.656Z,27.10
2019-03-09T14:53:24.187Z,28.10
2019-03-09T14:55:53.599Z,25.10
2019-03-09T14:58:23.069Z,33.60
2019-03-09T15:00:52.593Z,22.80
2019-03-09T15:03:22.135Z,27.87
2019-03-09T15:05:51.534Z,8.93
2019-03-09T15:08:21.007Z,9.40
2019-03-09T15:10:50.685Z,9.03
2019-03-09T15:13:20.103Z,8.10
2019-03-09T15:15:49.628Z,8.97
2019-03-09T15:18:19.173Z,11.63
2019-03-09T15:20:48.933Z,18.50
2019-03-09T15:23:18.432Z,12.20
2019-03-09T15:25:48.300Z,15.53
2019-03-09T15:28:17.831Z,14.93
2019-03-09T15:30:48.792Z,19.13
2019-03-09T15:33:18.298Z,18.03
2019-03-09T15:35:47.702Z,10.67
2019-03-09T15:38:17.248Z,14.50
2019-03-09T15:40:48.227Z,14.73
2019-03-09T15:43:17.729Z,14.50
2019-03-09T15:45:47.129Z,6.60
2019-03-09T15:48:16.578Z,7.40
2019-03-09T15:50:46.057Z,4.20
2019-03-09T15:53:15.444Z,12.33
2019-03-09T15:55:44.972Z,8.43
2019-03-09T15:58:14.421Z,7.87
2019-03-09T16:00:44.030Z,5.23
2019-03-09T16:03:13.467Z,6.67
2019-03-09T16:05:42.864Z,6.03
2019-03-09T16:08:12.348Z,6.23
2019-03-09T16:10:41.819Z,9.30
2019-03-09T16:13:11.529Z,7.47
2019-03-09T16:15:41.001Z,6.30
2019-03-09T16:18:10.354Z,7.37
2019-03-09T16:20:39.826Z,6.30
2019-03-09T16:23:09.328Z,7.37
2019-03-09T16:25:38.877Z,6.23
2019-03-09T16:28:08.218Z,7.40
2019-03-09T16:30:37.743Z,7.93
2019-03-09T16:33:07.162Z,15.60
2019-03-09T16:35:36.628Z,11.90
2019-03-09T16:38:06.131Z,11.83
2019-03-09T16:40:40.467Z,10.87
2019-03-09T16:43:06.866Z,5.23
2019-03-09T16:45:36.269Z,6.03
2019-03-09T16:48:05.870Z,11.60
2019-03-09T16:50:37.017Z,10.27
2019-03-09T16:53:06.467Z,7.97
2019-03-09T16:55:36.058Z,10.97
2019-03-09T16:58:05.707Z,8.40
2019-03-09T17:00:35.311Z,11.57
2019-03-09T17:03:04.926Z,13.20
2019-03-09T17:05:34.410Z,10.50
2019-03-09T17:08:04.082Z,5.67
2019-03-09T17:10:33.578Z,14.73
2019-03-09T17:13:03.062Z,12.17
2019-03-09T17:15:32.569Z,9.67
2019-03-09T17:18:02.087Z,13.33
2019-03-09T17:20:31.452Z,10.03
2019-03-09T17:23:00.926Z,10.03
2019-03-09T17:25:30.299Z,12.03
2019-03-09T17:27:59.848Z,13.60
2019-03-09T17:30:29.351Z,19.87
2019-03-09T17:32:58.743Z,10.23
2019-03-09T17:35:31.908Z,14.50
2019-03-09T17:38:01.003Z,12.40
2019-03-09T17:40:30.579Z,8.40
2019-03-09T17:43:00.027Z,13.57
2019-03-09T17:45:29.520Z,13.83
2019-03-09T17:47:58.995Z,13.37
2019-03-09T17:50:28.361Z,17.47
2019-03-09T17:52:59.295Z,17.00
2019-03-09T17:55:28.796Z,12.63
2019-03-09T17:57:58.253Z,20.07
2019-03-09T18:00:30.656Z,17.53
2019-03-09T18:03:01.882Z,14.13
2019-03-09T18:05:31.355Z,12.73
2019-03-09T18:08:00.819Z,10.90
2019-03-09T18:10:49.585Z,14.23
2019-03-09T18:13:19.066Z,14.40
2019-03-09T18:15:48.523Z,13.93
2019-03-09T18:18:18.027Z,12.10
2019-03-09T18:20:47.744Z,14.03
2019-03-09T18:23:17.240Z,15.10
2019-03-09T18:25:46.711Z,14.63
2019-03-09T18:28:16.238Z,14.77
2019-03-09T18:30:45.729Z,14.63
2019-03-09T18:33:15.155Z,17.23
2019-03-09T18:35:44.818Z,17.20
2019-03-09T18:38:14.180Z,14.27
2019-03-09T18:40:43.641Z,15.23
2019-03-09T18:43:13.082Z,15.57
2019-03-09T18:45:42.811Z,13.00
2019-03-09T18:48:12.316Z,15.07
2019-03-09T18:50:43.134Z,15.97
2019-03-09T18:53:12.639Z,13.30
2019-03-09T18:55:42.171Z,16.03
2019-03-09T18:58:11.609Z,18.57
2019-03-09T19:00:41.151Z,13.63
2019-03-09T19:03:10.579Z,15.63
2019-03-09T19:05:41.663Z,14.93
2019-03-09T19:08:11.027Z,17.47
2019-03-09T19:10:40.425Z,12.40
2019-03-09T19:13:09.977Z,13.93
2019-03-09T19:15:39.575Z,17.27
2019-03-09T19:18:09.190Z,21.27
2019-03-09T19:20:38.582Z,14.77
2019-03-09T19:23:07.987Z,13.77
2019-03-09T19:25:37.414Z,16.70
2019-03-09T19:28:06.811Z,12.30
2019-03-09T19:30:36.246Z,15.57
2019-03-09T19:33:05.886Z,15.40
2019-03-09T19:35:35.250Z,10.27
2019-03-09T19:38:04.711Z,12.53
2019-03-09T19:40:34.124Z,14.13
2019-03-09T19:43:03.707Z,14.20
2019-03-09T19:45:33.363Z,14.77
2019-03-09T19:48:02.895Z,11.27
2019-03-09T19:50:32.320Z,14.27
2019-03-09T19:53:01.716Z,12.77
2019-03-09T19:55:31.155Z,14.80
2019-03-09T19:58:00.618Z,17.60
2019-03-09T20:00:30.123Z,11.50
2019-03-09T20:02:59.585Z,10.10
2019-03-09T20:05:29.019Z,11.77
2019-03-09T20:07:58.572Z,13.07
2019-03-09T20:10:28.076Z,14.13
2019-03-09T20:12:57.480Z,13.30
2019-03-09T20:15:26.971Z,12.53
2019-03-09T20:17:56.447Z,11.37
2019-03-09T20:20:25.871Z,15.33
2019-03-09T20:22:55.266Z,12.63
2019-03-09T20:25:28.415Z,11.63
2019-03-09T20:27:57.526Z,16.23
2019-03-09T20:30:27.056Z,20.87
2019-03-09T20:32:57.018Z,18.30
2019-03-09T20:35:26.462Z,14.93
2019-03-09T20:37:56.695Z,12.90
2019-03-09T20:40:26.171Z,15.90
2019-03-09T20:42:55.709Z,14.07
2019-03-09T20:45:25.267Z,17.40
2019-03-09T20:47:54.671Z,14.57
2019-03-09T20:50:24.348Z,16.07
2019-03-09T20:52:53.852Z,14.27
2019-03-09T20:55:23.259Z,12.97
2019-03-09T20:57:52.725Z,18.43
2019-03-09T21:00:23.145Z,14.13
2019-03-09T21:02:52.610Z,17.97
2019-03-09T21:05:22.055Z,14.77
2019-03-09T21:07:51.534Z,13.57
2019-03-09T21:10:21.444Z,19.67
2019-03-09T21:13:06.021Z,19.33
2019-03-09T21:15:35.645Z,15.67
2019-03-09T21:18:05.614Z,10.43
2019-03-09T21:20:36.286Z,17.87
2019-03-09T21:23:05.817Z,11.23
2019-03-09T21:25:35.266Z,15.13
2019-03-09T21:28:04.728Z,17.53
2019-03-09T21:30:34.312Z,13.20
2019-03-09T21:33:03.819Z,13.37
2019-03-09T21:35:33.336Z,16.90
2019-03-09T21:38:02.723Z,18.33
2019-03-09T21:40:32.265Z,17.67
2019-03-09T21:43:01.659Z,18.80
2019-03-09T21:45:31.071Z,15.17
2019-03-09T21:48:00.510Z,19.07
2019-03-09T21:50:30.048Z,20.60
2019-03-09T21:53:01.040Z,16.70
2019-03-09T21:55:30.899Z,17.97
2019-03-09T21:58:00.331Z,17.27
2019-03-09T22:00:29.733Z,17.17
2019-03-09T22:02:59.221Z,15.17
2019-03-09T22:05:29.050Z,17.87
2019-03-09T22:07:58.492Z,20.70
2019-03-09T22:10:27.932Z,24.23
2019-03-09T22:12:57.362Z,20.57
2019-03-09T22:15:26.825Z,21.33
2019-03-09T22:17:56.177Z,14.67
2019-03-09T22:20:25.636Z,18.47
2019-03-09T22:22:55.039Z,17.73
2019-03-09T22:25:24.467Z,24.53
2019-03-09T22:27:53.891Z,20.87
2019-03-09T22:30:23.454Z,16.03
2019-03-09T22:32:52.860Z,18.83
2019-03-09T22:35:22.221Z,17.93
2019-03-09T22:37:51.696Z,19.33
2019-03-09T22:40:21.329Z,18.43
2019-03-09T22:42:50.776Z,16.53
2019-03-09T22:45:20.245Z,17.40
2019-03-09T22:47:49.834Z,17.03
2019-03-09T22:50:24.600Z,18.97
2019-03-09T22:52:54.497Z,20.87
2019-03-09T22:55:24.030Z,20.77
2019-03-09T22:57:53.511Z,16.13
2019-03-09T23:00:27.210Z,15.47
2019-03-09T23:02:56.727Z,18.73
2019-03-09T23:05:26.198Z,14.90
2019-03-09T23:07:55.623Z,14.33
2019-03-09T23:10:27.197Z,18.43
2019-03-09T23:12:56.680Z,18.60
2019-03-09T23:15:26.216Z,21.33
2019-03-09T23:17:55.693Z,14.30
2019-03-09T23:20:25.219Z,15.30
2019-03-09T23:22:54.752Z,17.03
2019-03-09T23:25:24.225Z,13.57
2019-03-09T23:27:53.696Z,17.17
2019-03-09T23:30:23.499Z,15.77
2019-03-09T23:32:54.485Z,14.10
2019-03-09T23:35:23.918Z,14.37
2019-03-09T23:37:53.398Z,15.10
2019-03-09T23:40:24.449Z,15.07
2019-03-09T23:42:54.048Z,14.63
2019-03-09T23:45:25.119Z,18.93
2019-03-09T23:47:54.668Z,17.67
2019-03-09T23:50:24.299Z,14.13
2019-03-09T23:52:54.201Z,20.83
2019-03-09T23:55:23.771Z,13.73
2019-03-09T23:57:53.238Z,14.70
